Terminal Aerodrome Forecast
Issued by NWS Cleveland, OH

Home | Current Version | Previous Version | Graphics & Text | Print | Product List | Glossary On
Versions: 1 2 3 4 5 6 7 8 9 10 11 12 13
693
FTUS41 KCLE 161130
TAFMFD
TAF
KMFD 161130Z 1612/1712 31006KT P6SM SCT040
     FM161400 32009KT P6SM BKN045
     FM162000 32006KT P6SM SCT050
     FM170100 18003KT P6SM SCT200=

USA.gov is the U.S. government's official web portal to all federal, state and local government web resources and services.